sensor_id;sensor_type;location;lat;lon;timestamp;temperature;humidity
19340;HTU21D;9804;52.350;6.684;2024-01-30T00:00:35;10.28;-6.00
19340;HTU21D;9804;52.350;6.684;2024-01-30T00:03:01;10.20;-6.00
19340;HTU21D;9804;52.350;6.684;2024-01-30T00:05:26;10.28;-6.00
19340;HTU21D;9804;52.350;6.684;2024-01-30T00:07:52;10.42;-6.00
19340;HTU21D;9804;52.350;6.684;2024-01-30T00:10:18;10.44;-6.00
19340;HTU21D;9804;52.350;6.684;2024-01-30T00:12:43;10.40;-6.00
19340;HTU21D;9804;52.350;6.684;2024-01-30T00:15:08;10.38;-6.00
19340;HTU21D;9804;52.350;6.684;2024-01-30T00:17:36;10.48;-6.00
19340;HTU21D;9804;52.350;6.684;2024-01-30T00:20:02;10.46;-6.00
19340;HTU21D;9804;52.350;6.684;2024-01-30T00:22:33;10.52;-6.00
19340;HTU21D;9804;52.350;6.684;2024-01-30T00:24:58;10.43;-6.00
19340;HTU21D;9804;52.350;6.684;2024-01-30T00:27:25;10.42;-6.00
19340;HTU21D;9804;52.350;6.684;2024-01-30T00:29:51;10.51;-6.00
19340;HTU21D;9804;52.350;6.684;2024-01-30T00:32:16;10.46;-6.00
19340;HTU21D;9804;52.350;6.684;2024-01-30T00:34:44;10.53;-6.00
19340;HTU21D;9804;52.350;6.684;2024-01-30T00:37:09;10.44;-6.00
19340;HTU21D;9804;52.350;6.684;2024-01-30T00:39:35;10.41;-6.00
19340;HTU21D;9804;52.350;6.684;2024-01-30T00:42:00;10.46;-6.00
19340;HTU21D;9804;52.350;6.684;2024-01-30T00:44:26;10.60;-6.00
19340;HTU21D;9804;52.350;6.684;2024-01-30T00:46:51;10.41;-6.00
19340;HTU21D;9804;52.350;6.684;2024-01-30T00:49:17;10.49;-6.00
19340;HTU21D;9804;52.350;6.684;2024-01-30T00:51:42;10.56;-6.00
19340;HTU21D;9804;52.350;6.684;2024-01-30T00:54:07;10.64;-6.00
19340;HTU21D;9804;52.350;6.684;2024-01-30T00:56:33;10.63;-6.00
19340;HTU21D;9804;52.350;6.684;2024-01-30T00:58:58;10.53;-6.00
19340;HTU21D;9804;52.350;6.684;2024-01-30T01:01:24;10.50;-6.00
19340;HTU21D;9804;52.350;6.684;2024-01-30T01:03:50;10.56;-6.00
19340;HTU21D;9804;52.350;6.684;2024-01-30T01:06:15;10.58;-6.00
19340;HTU21D;9804;52.350;6.684;2024-01-30T01:08:41;10.56;-6.00
19340;HTU21D;9804;52.350;6.684;2024-01-30T01:11:06;10.50;-6.00
19340;HTU21D;9804;52.350;6.684;2024-01-30T01:13:32;10.56;-6.00
19340;HTU21D;9804;52.350;6.684;2024-01-30T01:15:57;10.59;-6.00
19340;HTU21D;9804;52.350;6.684;2024-01-30T01:18:22;10.65;-6.00
19340;HTU21D;9804;52.350;6.684;2024-01-30T01:20:48;10.56;-6.00
19340;HTU21D;9804;52.350;6.684;2024-01-30T01:23:14;10.44;-6.00
19340;HTU21D;9804;52.350;6.684;2024-01-30T01:25:39;10.49;-6.00
19340;HTU21D;9804;52.350;6.684;2024-01-30T01:28:05;10.44;-6.00
19340;HTU21D;9804;52.350;6.684;2024-01-30T01:30:30;10.43;-6.00
19340;HTU21D;9804;52.350;6.684;2024-01-30T01:32:56;10.36;-6.00
19340;HTU21D;9804;52.350;6.684;2024-01-30T01:35:23;10.37;-6.00
19340;HTU21D;9804;52.350;6.684;2024-01-30T01:37:50;10.29;-6.00
19340;HTU21D;9804;52.350;6.684;2024-01-30T01:40:24;10.30;-6.00
19340;HTU21D;9804;52.350;6.684;2024-01-30T01:42:50;10.31;-6.00
19340;HTU21D;9804;52.350;6.684;2024-01-30T01:45:17;10.24;-6.00
19340;HTU21D;9804;52.350;6.684;2024-01-30T01:47:43;10.31;-6.00
19340;HTU21D;9804;52.350;6.684;2024-01-30T01:50:15;10.33;-6.00
19340;HTU21D;9804;52.350;6.684;2024-01-30T01:52:43;10.11;-6.00
19340;HTU21D;9804;52.350;6.684;2024-01-30T01:55:09;10.04;-6.00
19340;HTU21D;9804;52.350;6.684;2024-01-30T01:57:35;10.13;-6.00
19340;HTU21D;9804;52.350;6.684;2024-01-30T02:00:01;10.14;-6.00
19340;HTU21D;9804;52.350;6.684;2024-01-30T02:02:30;10.00;-6.00
19340;HTU21D;9804;52.350;6.684;2024-01-30T02:04:57;10.03;-6.00
19340;HTU21D;9804;52.350;6.684;2024-01-30T02:07:23;9.92;-6.00
19340;HTU21D;9804;52.350;6.684;2024-01-30T02:09:49;9.97;-6.00
19340;HTU21D;9804;52.350;6.684;2024-01-30T02:12:14;10.08;-6.00
19340;HTU21D;9804;52.350;6.684;2024-01-30T02:14:47;10.14;-6.00
19340;HTU21D;9804;52.350;6.684;2024-01-30T02:17:13;10.19;-6.00
19340;HTU21D;9804;52.350;6.684;2024-01-30T02:19:39;10.22;-6.00
19340;HTU21D;9804;52.350;6.684;2024-01-30T02:22:04;10.15;-6.00
19340;HTU21D;9804;52.350;6.684;2024-01-30T02:24:30;10.18;-6.00
19340;HTU21D;9804;52.350;6.684;2024-01-30T02:26:56;10.23;-6.00
19340;HTU21D;9804;52.350;6.684;2024-01-30T02:29:21;10.10;-6.00
19340;HTU21D;9804;52.350;6.684;2024-01-30T02:31:47;10.21;-6.00
19340;HTU21D;9804;52.350;6.684;2024-01-30T02:34:12;10.23;-6.00
19340;HTU21D;9804;52.350;6.684;2024-01-30T02:36:37;10.20;-6.00
19340;HTU21D;9804;52.350;6.684;2024-01-30T02:39:03;10.29;-6.00
19340;HTU21D;9804;52.350;6.684;2024-01-30T02:41:29;10.27;-6.00
19340;HTU21D;9804;52.350;6.684;2024-01-30T02:43:54;10.12;-6.00
19340;HTU21D;9804;52.350;6.684;2024-01-30T02:46:20;10.20;-6.00
19340;HTU21D;9804;52.350;6.684;2024-01-30T02:48:45;10.10;-6.00
19340;HTU21D;9804;52.350;6.684;2024-01-30T02:51:10;10.12;-6.00
19340;HTU21D;9804;52.350;6.684;2024-01-30T02:53:36;10.10;-6.00
19340;HTU21D;9804;52.350;6.684;2024-01-30T02:56:04;10.06;-6.00
19340;HTU21D;9804;52.350;6.684;2024-01-30T02:58:31;10.01;-6.00
19340;HTU21D;9804;52.350;6.684;2024-01-30T03:00:56;10.01;-6.00
19340;HTU21D;9804;52.350;6.684;2024-01-30T03:03:22;10.00;-6.00
19340;HTU21D;9804;52.350;6.684;2024-01-30T03:05:47;9.96;-6.00
19340;HTU21D;9804;52.350;6.684;2024-01-30T03:08:13;9.95;-6.00
19340;HTU21D;9804;52.350;6.684;2024-01-30T03:10:38;9.99;-6.00
19340;HTU21D;9804;52.350;6.684;2024-01-30T03:13:04;9.77;-6.00
19340;HTU21D;9804;52.350;6.684;2024-01-30T03:15:29;9.84;-6.00
19340;HTU21D;9804;52.350;6.684;2024-01-30T03:17:54;9.79;-6.00
19340;HTU21D;9804;52.350;6.684;2024-01-30T03:20:20;9.83;-6.00
19340;HTU21D;9804;52.350;6.684;2024-01-30T03:22:45;9.89;-6.00
19340;HTU21D;9804;52.350;6.684;2024-01-30T03:25:12;9.94;-6.00
19340;HTU21D;9804;52.350;6.684;2024-01-30T03:27:37;9.80;-6.00
19340;HTU21D;9804;52.350;6.684;2024-01-30T03:30:03;9.80;-6.00
19340;HTU21D;9804;52.350;6.684;2024-01-30T03:32:28;9.80;-6.00
19340;HTU21D;9804;52.350;6.684;2024-01-30T03:34:54;9.74;-6.00
19340;HTU21D;9804;52.350;6.684;2024-01-30T03:37:19;9.80;-6.00
19340;HTU21D;9804;52.350;6.684;2024-01-30T03:39:45;9.80;-6.00
19340;HTU21D;9804;52.350;6.684;2024-01-30T03:42:10;9.71;-6.00
19340;HTU21D;9804;52.350;6.684;2024-01-30T03:44:36;9.78;-6.00
19340;HTU21D;9804;52.350;6.684;2024-01-30T03:47:01;9.72;-6.00
19340;HTU21D;9804;52.350;6.684;2024-01-30T03:49:26;9.75;-6.00
19340;HTU21D;9804;52.350;6.684;2024-01-30T03:51:52;9.77;-6.00
19340;HTU21D;9804;52.350;6.684;2024-01-30T03:54:17;9.69;-6.00
19340;HTU21D;9804;52.350;6.684;2024-01-30T03:56:43;9.72;-6.00
19340;HTU21D;9804;52.350;6.684;2024-01-30T03:59:08;9.72;-6.00
19340;HTU21D;9804;52.350;6.684;2024-01-30T04:01:33;9.72;-6.00
19340;HTU21D;9804;52.350;6.684;2024-01-30T04:03:59;9.64;-6.00
19340;HTU21D;9804;52.350;6.684;2024-01-30T04:06:24;9.71;-6.00
19340;HTU21D;9804;52.350;6.684;2024-01-30T04:08:50;9.76;-6.00
19340;HTU21D;9804;52.350;6.684;2024-01-30T04:11:18;9.81;-6.00
19340;HTU21D;9804;52.350;6.684;2024-01-30T04:13:43;9.74;-6.00
19340;HTU21D;9804;52.350;6.684;2024-01-30T04:16:19;9.64;-6.00
19340;HTU21D;9804;52.350;6.684;2024-01-30T04:18:46;9.59;-6.00
19340;HTU21D;9804;52.350;6.684;2024-01-30T04:21:11;9.60;-6.00
19340;HTU21D;9804;52.350;6.684;2024-01-30T04:23:36;9.50;-6.00
19340;HTU21D;9804;52.350;6.684;2024-01-30T04:26:02;9.48;-6.00
19340;HTU21D;9804;52.350;6.684;2024-01-30T04:28:28;9.46;-6.00
19340;HTU21D;9804;52.350;6.684;2024-01-30T04:30:54;9.46;-6.00
19340;HTU21D;9804;52.350;6.684;2024-01-30T04:33:19;9.49;-6.00
19340;HTU21D;9804;52.350;6.684;2024-01-30T04:35:44;9.49;-6.00
19340;HTU21D;9804;52.350;6.684;2024-01-30T04:38:10;9.50;-6.00
19340;HTU21D;9804;52.350;6.684;2024-01-30T04:40:35;9.50;-6.00
19340;HTU21D;9804;52.350;6.684;2024-01-30T04:43:01;9.57;-6.00
19340;HTU21D;9804;52.350;6.684;2024-01-30T04:45:26;9.59;-6.00
19340;HTU21D;9804;52.350;6.684;2024-01-30T04:47:52;9.61;-6.00
19340;HTU21D;9804;52.350;6.684;2024-01-30T04:50:17;9.64;-6.00
19340;HTU21D;9804;52.350;6.684;2024-01-30T04:52:43;9.66;-6.00
19340;HTU21D;9804;52.350;6.684;2024-01-30T04:55:09;9.71;-6.00
19340;HTU21D;9804;52.350;6.684;2024-01-30T04:57:34;9.76;-6.00
19340;HTU21D;9804;52.350;6.684;2024-01-30T05:00:00;9.79;-6.00
19340;HTU21D;9804;52.350;6.684;2024-01-30T05:02:25;9.81;-6.00
19340;HTU21D;9804;52.350;6.684;2024-01-30T05:04:50;9.92;-6.00
19340;HTU21D;9804;52.350;6.684;2024-01-30T05:07:16;9.88;-6.00
19340;HTU21D;9804;52.350;6.684;2024-01-30T05:09:41;9.91;-6.00
19340;HTU21D;9804;52.350;6.684;2024-01-30T05:12:07;9.94;-6.00
19340;HTU21D;9804;52.350;6.684;2024-01-30T05:14:32;9.92;-6.00
19340;HTU21D;9804;52.350;6.684;2024-01-30T05:16:59;9.98;-6.00
19340;HTU21D;9804;52.350;6.684;2024-01-30T05:19:25;10.03;-6.00
19340;HTU21D;9804;52.350;6.684;2024-01-30T05:21:50;10.10;-6.00
19340;HTU21D;9804;52.350;6.684;2024-01-30T05:24:16;10.09;-6.00
19340;HTU21D;9804;52.350;6.684;2024-01-30T05:26:41;9.99;-6.00
19340;HTU21D;9804;52.350;6.684;2024-01-30T05:29:07;10.10;-6.00
19340;HTU21D;9804;52.350;6.684;2024-01-30T05:31:33;10.11;-6.00
19340;HTU21D;9804;52.350;6.684;2024-01-30T05:33:59;10.13;-6.00
19340;HTU21D;9804;52.350;6.684;2024-01-30T05:36:25;10.15;-6.00
19340;HTU21D;9804;52.350;6.684;2024-01-30T05:38:50;10.20;-6.00
19340;HTU21D;9804;52.350;6.684;2024-01-30T05:41:16;10.15;-6.00
19340;HTU21D;9804;52.350;6.684;2024-01-30T05:43:42;10.33;-6.00
19340;HTU21D;9804;52.350;6.684;2024-01-30T05:46:07;10.23;-6.00
19340;HTU21D;9804;52.350;6.684;2024-01-30T05:48:32;10.33;-6.00
19340;HTU21D;9804;52.350;6.684;2024-01-30T05:51:00;10.29;-6.00
19340;HTU21D;9804;52.350;6.684;2024-01-30T05:53:26;10.31;-6.00
19340;HTU21D;9804;52.350;6.684;2024-01-30T05:55:51;10.52;-6.00
19340;HTU21D;9804;52.350;6.684;2024-01-30T05:58:16;10.40;-6.00
19340;HTU21D;9804;52.350;6.684;2024-01-30T06:00:42;10.48;-6.00
19340;HTU21D;9804;52.350;6.684;2024-01-30T06:03:07;10.51;-6.00
19340;HTU21D;9804;52.350;6.684;2024-01-30T06:05:33;10.38;-6.00
19340;HTU21D;9804;52.350;6.684;2024-01-30T06:07:58;10.38;-6.00
19340;HTU21D;9804;52.350;6.684;2024-01-30T06:10:24;10.55;-6.00
19340;HTU21D;9804;52.350;6.684;2024-01-30T06:12:49;10.64;-6.00
19340;HTU21D;9804;52.350;6.684;2024-01-30T06:15:14;10.57;-6.00
19340;HTU21D;9804;52.350;6.684;2024-01-30T06:17:40;10.59;-6.00
19340;HTU21D;9804;52.350;6.684;2024-01-30T06:20:06;10.65;-6.00
19340;HTU21D;9804;52.350;6.684;2024-01-30T06:22:31;10.62;-6.00
19340;HTU21D;9804;52.350;6.684;2024-01-30T06:24:57;10.64;-6.00
19340;HTU21D;9804;52.350;6.684;2024-01-30T06:27:22;10.62;-6.00
19340;HTU21D;9804;52.350;6.684;2024-01-30T06:29:48;10.66;-6.00
19340;HTU21D;9804;52.350;6.684;2024-01-30T06:32:13;10.77;-6.00
19340;HTU21D;9804;52.350;6.684;2024-01-30T06:34:38;10.67;-6.00
19340;HTU21D;9804;52.350;6.684;2024-01-30T06:37:05;10.63;-6.00
19340;HTU21D;9804;52.350;6.684;2024-01-30T06:39:31;10.74;-6.00
19340;HTU21D;9804;52.350;6.684;2024-01-30T06:41:56;10.79;-6.00
19340;HTU21D;9804;52.350;6.684;2024-01-30T06:44:22;10.92;-6.00
19340;HTU21D;9804;52.350;6.684;2024-01-30T06:46:47;10.86;-6.00
19340;HTU21D;9804;52.350;6.684;2024-01-30T06:49:13;10.87;-6.00
19340;HTU21D;9804;52.350;6.684;2024-01-30T06:51:38;10.87;-6.00
19340;HTU21D;9804;52.350;6.684;2024-01-30T06:54:04;11.05;-6.00
19340;HTU21D;9804;52.350;6.684;2024-01-30T06:56:29;10.99;-6.00
19340;HTU21D;9804;52.350;6.684;2024-01-30T06:58:55;11.19;-6.00
19340;HTU21D;9804;52.350;6.684;2024-01-30T07:01:20;11.11;-6.00
19340;HTU21D;9804;52.350;6.684;2024-01-30T07:03:46;11.08;-6.00
19340;HTU21D;9804;52.350;6.684;2024-01-30T07:06:12;11.22;-6.00
19340;HTU21D;9804;52.350;6.684;2024-01-30T07:08:37;11.07;-6.00
19340;HTU21D;9804;52.350;6.684;2024-01-30T07:11:06;11.22;-6.00
19340;HTU21D;9804;52.350;6.684;2024-01-30T07:13:32;11.11;-6.00
19340;HTU21D;9804;52.350;6.684;2024-01-30T07:15:58;11.01;-6.00
19340;HTU21D;9804;52.350;6.684;2024-01-30T07:18:23;11.01;-6.00
19340;HTU21D;9804;52.350;6.684;2024-01-30T07:20:49;11.20;-6.00
19340;HTU21D;9804;52.350;6.684;2024-01-30T07:23:16;11.18;-6.00
19340;HTU21D;9804;52.350;6.684;2024-01-30T07:25:46;11.17;-6.00
19340;HTU21D;9804;52.350;6.684;2024-01-30T07:28:14;11.27;-6.00
19340;HTU21D;9804;52.350;6.684;2024-01-30T07:30:41;11.27;-6.00
19340;HTU21D;9804;52.350;6.684;2024-01-30T07:33:07;11.33;-6.00
19340;HTU21D;9804;52.350;6.684;2024-01-30T07:35:34;11.19;-6.00
19340;HTU21D;9804;52.350;6.684;2024-01-30T07:37:59;11.26;-6.00
19340;HTU21D;9804;52.350;6.684;2024-01-30T07:40:24;11.17;-6.00
19340;HTU21D;9804;52.350;6.684;2024-01-30T07:42:50;11.13;-6.00
19340;HTU21D;9804;52.350;6.684;2024-01-30T07:45:15;11.27;-6.00
19340;HTU21D;9804;52.350;6.684;2024-01-30T07:47:41;11.23;-6.00
19340;HTU21D;9804;52.350;6.684;2024-01-30T07:50:08;11.19;-6.00
19340;HTU21D;9804;52.350;6.684;2024-01-30T07:52:34;11.20;-6.00
19340;HTU21D;9804;52.350;6.684;2024-01-30T07:54:59;11.25;-6.00
19340;HTU21D;9804;52.350;6.684;2024-01-30T07:57:25;11.18;-6.00
19340;HTU21D;9804;52.350;6.684;2024-01-30T07:59:50;11.34;-6.00
19340;HTU21D;9804;52.350;6.684;2024-01-30T08:02:16;11.36;-6.00
19340;HTU21D;9804;52.350;6.684;2024-01-30T08:04:41;11.45;-6.00
19340;HTU21D;9804;52.350;6.684;2024-01-30T08:07:07;11.36;-6.00
19340;HTU21D;9804;52.350;6.684;2024-01-30T08:09:32;11.54;-6.00
19340;HTU21D;9804;52.350;6.684;2024-01-30T08:11:58;11.52;-6.00
19340;HTU21D;9804;52.350;6.684;2024-01-30T08:14:23;11.47;-6.00
19340;HTU21D;9804;52.350;6.684;2024-01-30T08:16:48;11.45;-6.00
19340;HTU21D;9804;52.350;6.684;2024-01-30T08:19:14;11.46;-6.00
19340;HTU21D;9804;52.350;6.684;2024-01-30T08:21:40;11.47;-6.00
19340;HTU21D;9804;52.350;6.684;2024-01-30T08:24:06;11.48;-6.00
19340;HTU21D;9804;52.350;6.684;2024-01-30T08:26:32;11.54;-6.00
19340;HTU21D;9804;52.350;6.684;2024-01-30T08:28:58;11.45;-6.00
19340;HTU21D;9804;52.350;6.684;2024-01-30T08:31:23;11.59;-6.00
19340;HTU21D;9804;52.350;6.684;2024-01-30T08:33:49;11.61;-6.00
19340;HTU21D;9804;52.350;6.684;2024-01-30T08:36:16;11.67;-6.00
19340;HTU21D;9804;52.350;6.684;2024-01-30T08:38:41;11.68;-6.00
19340;HTU21D;9804;52.350;6.684;2024-01-30T08:41:07;11.84;-6.00
19340;HTU21D;9804;52.350;6.684;2024-01-30T08:43:33;11.71;-6.00
19340;HTU21D;9804;52.350;6.684;2024-01-30T08:45:59;11.81;-6.00
19340;HTU21D;9804;52.350;6.684;2024-01-30T08:48:25;11.79;-6.00
19340;HTU21D;9804;52.350;6.684;2024-01-30T08:50:51;11.83;-6.00
19340;HTU21D;9804;52.350;6.684;2024-01-30T08:53:16;12.08;-6.00
19340;HTU21D;9804;52.350;6.684;2024-01-30T08:55:42;11.89;-6.00
19340;HTU21D;9804;52.350;6.684;2024-01-30T08:58:07;11.94;-6.00
19340;HTU21D;9804;52.350;6.684;2024-01-30T09:00:33;11.87;-6.00
19340;HTU21D;9804;52.350;6.684;2024-01-30T09:02:58;12.01;-6.00
19340;HTU21D;9804;52.350;6.684;2024-01-30T09:05:24;11.87;-6.00
19340;HTU21D;9804;52.350;6.684;2024-01-30T09:07:49;12.03;-6.00
19340;HTU21D;9804;52.350;6.684;2024-01-30T09:10:15;12.04;-6.00
19340;HTU21D;9804;52.350;6.684;2024-01-30T09:12:41;11.91;-6.00
19340;HTU21D;9804;52.350;6.684;2024-01-30T09:15:06;12.12;-6.00
19340;HTU21D;9804;52.350;6.684;2024-01-30T09:17:32;12.19;-6.00
19340;HTU21D;9804;52.350;6.684;2024-01-30T09:19:58;12.01;-6.00
19340;HTU21D;9804;52.350;6.684;2024-01-30T09:22:24;12.29;-6.00
19340;HTU21D;9804;52.350;6.684;2024-01-30T09:24:50;12.27;-6.00
19340;HTU21D;9804;52.350;6.684;2024-01-30T09:27:15;12.28;-6.00
19340;HTU21D;9804;52.350;6.684;2024-01-30T09:29:40;12.37;-6.00
19340;HTU21D;9804;52.350;6.684;2024-01-30T09:32:06;12.35;-6.00
19340;HTU21D;9804;52.350;6.684;2024-01-30T09:34:32;12.50;-6.00
19340;HTU21D;9804;52.350;6.684;2024-01-30T09:36:58;12.65;-6.00
19340;HTU21D;9804;52.350;6.684;2024-01-30T09:39:25;12.59;-6.00
19340;HTU21D;9804;52.350;6.684;2024-01-30T09:42:07;12.76;-6.00
19340;HTU21D;9804;52.350;6.684;2024-01-30T09:44:34;12.71;-6.00
19340;HTU21D;9804;52.350;6.684;2024-01-30T09:47:01;12.73;-6.00
19340;HTU21D;9804;52.350;6.684;2024-01-30T09:49:32;13.09;-6.00
19340;HTU21D;9804;52.350;6.684;2024-01-30T09:51:58;12.84;-6.00
19340;HTU21D;9804;52.350;6.684;2024-01-30T09:54:23;12.86;-6.00
19340;HTU21D;9804;52.350;6.684;2024-01-30T09:56:49;12.88;-6.00
19340;HTU21D;9804;52.350;6.684;2024-01-30T09:59:15;12.96;-6.00
19340;HTU21D;9804;52.350;6.684;2024-01-30T10:01:40;12.97;-6.00
19340;HTU21D;9804;52.350;6.684;2024-01-30T10:04:07;12.97;-6.00
19340;HTU21D;9804;52.350;6.684;2024-01-30T10:06:32;13.17;-6.00
19340;HTU21D;9804;52.350;6.684;2024-01-30T10:08:58;13.16;-6.00
19340;HTU21D;9804;52.350;6.684;2024-01-30T10:11:23;13.10;-6.00
19340;HTU21D;9804;52.350;6.684;2024-01-30T10:13:49;13.26;-6.00
19340;HTU21D;9804;52.350;6.684;2024-01-30T10:16:14;13.24;-6.00
19340;HTU21D;9804;52.350;6.684;2024-01-30T10:18:42;13.30;-6.00
19340;HTU21D;9804;52.350;6.684;2024-01-30T10:21:08;13.41;-6.00
19340;HTU21D;9804;52.350;6.684;2024-01-30T10:23:34;13.34;-6.00
19340;HTU21D;9804;52.350;6.684;2024-01-30T10:25:59;13.31;-6.00
19340;HTU21D;9804;52.350;6.684;2024-01-30T10:28:27;13.50;-6.00
19340;HTU21D;9804;52.350;6.684;2024-01-30T10:31:01;13.62;-6.00
19340;HTU21D;9804;52.350;6.684;2024-01-30T10:33:27;13.51;-6.00
19340;HTU21D;9804;52.350;6.684;2024-01-30T10:35:56;13.60;-6.00
19340;HTU21D;9804;52.350;6.684;2024-01-30T10:38:30;13.58;-6.00
19340;HTU21D;9804;52.350;6.684;2024-01-30T10:41:00;13.68;-6.00
19340;HTU21D;9804;52.350;6.684;2024-01-30T10:43:35;13.65;-6.00
19340;HTU21D;9804;52.350;6.684;2024-01-30T10:48:42;13.70;-6.00
19340;HTU21D;9804;52.350;6.684;2024-01-30T10:51:10;13.77;-6.00
19340;HTU21D;9804;52.350;6.684;2024-01-30T10:53:36;13.93;-6.00
19340;HTU21D;9804;52.350;6.684;2024-01-30T10:56:03;14.09;-6.00
19340;HTU21D;9804;52.350;6.684;2024-01-30T10:58:29;13.90;-6.00
19340;HTU21D;9804;52.350;6.684;2024-01-30T11:00:55;13.95;-6.00
19340;HTU21D;9804;52.350;6.684;2024-01-30T11:03:21;13.99;-6.00
19340;HTU21D;9804;52.350;6.684;2024-01-30T11:05:50;13.76;-6.00
19340;HTU21D;9804;52.350;6.684;2024-01-30T11:08:23;13.95;-6.00
19340;HTU21D;9804;52.350;6.684;2024-01-30T11:10:54;13.97;-6.00
19340;HTU21D;9804;52.350;6.684;2024-01-30T11:13:19;14.19;-6.00
19340;HTU21D;9804;52.350;6.684;2024-01-30T11:15:47;14.27;-6.00
19340;HTU21D;9804;52.350;6.684;2024-01-30T11:18:25;14.27;-6.00
19340;HTU21D;9804;52.350;6.684;2024-01-30T11:20:51;14.29;-6.00
19340;HTU21D;9804;52.350;6.684;2024-01-30T11:23:17;14.34;-6.00
19340;HTU21D;9804;52.350;6.684;2024-01-30T11:25:43;14.38;-6.00
19340;HTU21D;9804;52.350;6.684;2024-01-30T11:28:16;14.37;-6.00
19340;HTU21D;9804;52.350;6.684;2024-01-30T11:30:42;14.29;-6.00
19340;HTU21D;9804;52.350;6.684;2024-01-30T11:33:09;14.23;-6.00
19340;HTU21D;9804;52.350;6.684;2024-01-30T11:35:45;14.23;-6.00
19340;HTU21D;9804;52.350;6.684;2024-01-30T11:38:14;14.29;-6.00
19340;HTU21D;9804;52.350;6.684;2024-01-30T11:40:40;14.47;-6.00
19340;HTU21D;9804;52.350;6.684;2024-01-30T11:43:07;14.32;-6.00
19340;HTU21D;9804;52.350;6.684;2024-01-30T11:45:34;14.37;-6.00
19340;HTU21D;9804;52.350;6.684;2024-01-30T11:48:00;14.23;-6.00
19340;HTU21D;9804;52.350;6.684;2024-01-30T11:50:34;14.30;-6.00
19340;HTU21D;9804;52.350;6.684;2024-01-30T11:53:00;14.45;-6.00
19340;HTU21D;9804;52.350;6.684;2024-01-30T11:55:26;14.44;-6.00
19340;HTU21D;9804;52.350;6.684;2024-01-30T11:57:55;14.51;-6.00
19340;HTU21D;9804;52.350;6.684;2024-01-30T12:00:20;14.69;-6.00
19340;HTU21D;9804;52.350;6.684;2024-01-30T12:02:50;14.77;-6.00
19340;HTU21D;9804;52.350;6.684;2024-01-30T12:05:16;14.72;-6.00
19340;HTU21D;9804;52.350;6.684;2024-01-30T12:07:44;14.59;-6.00
19340;HTU21D;9804;52.350;6.684;2024-01-30T12:10:11;14.57;-6.00
19340;HTU21D;9804;52.350;6.684;2024-01-30T12:12:36;14.69;-6.00
19340;HTU21D;9804;52.350;6.684;2024-01-30T12:15:02;14.71;-6.00
19340;HTU21D;9804;52.350;6.684;2024-01-30T12:17:32;14.66;-6.00
19340;HTU21D;9804;52.350;6.684;2024-01-30T12:20:07;14.82;-6.00
19340;HTU21D;9804;52.350;6.684;2024-01-30T12:25:08;14.80;-6.00
19340;HTU21D;9804;52.350;6.684;2024-01-30T12:27:34;14.85;-6.00
19340;HTU21D;9804;52.350;6.684;2024-01-30T12:30:00;14.74;-6.00
19340;HTU21D;9804;52.350;6.684;2024-01-30T12:32:26;14.70;-6.00
19340;HTU21D;9804;52.350;6.684;2024-01-30T12:34:55;14.81;-6.00
19340;HTU21D;9804;52.350;6.684;2024-01-30T12:37:20;14.65;-6.00
19340;HTU21D;9804;52.350;6.684;2024-01-30T12:39:48;14.71;-6.00
19340;HTU21D;9804;52.350;6.684;2024-01-30T12:42:14;14.71;-6.00
19340;HTU21D;9804;52.350;6.684;2024-01-30T12:44:39;14.75;-6.00
19340;HTU21D;9804;52.350;6.684;2024-01-30T12:47:05;14.57;-6.00
19340;HTU21D;9804;52.350;6.684;2024-01-30T12:49:31;14.51;-6.00
19340;HTU21D;9804;52.350;6.684;2024-01-30T12:51:56;14.72;-6.00
19340;HTU21D;9804;52.350;6.684;2024-01-30T12:54:23;14.82;-6.00
19340;HTU21D;9804;52.350;6.684;2024-01-30T12:56:48;14.59;-6.00
19340;HTU21D;9804;52.350;6.684;2024-01-30T12:59:14;14.72;-6.00
19340;HTU21D;9804;52.350;6.684;2024-01-30T13:01:39;14.64;-6.00
19340;HTU21D;9804;52.350;6.684;2024-01-30T13:04:05;14.71;-6.00
19340;HTU21D;9804;52.350;6.684;2024-01-30T13:06:30;14.77;-6.00
19340;HTU21D;9804;52.350;6.684;2024-01-30T13:08:56;14.70;-6.00
19340;HTU21D;9804;52.350;6.684;2024-01-30T13:11:21;14.81;-6.00
19340;HTU21D;9804;52.350;6.684;2024-01-30T13:13:47;14.82;-6.00
19340;HTU21D;9804;52.350;6.684;2024-01-30T13:16:12;14.92;-6.00
19340;HTU21D;9804;52.350;6.684;2024-01-30T13:18:38;14.99;-6.00
19340;HTU21D;9804;52.350;6.684;2024-01-30T13:21:03;14.81;-6.00
19340;HTU21D;9804;52.350;6.684;2024-01-30T13:23:29;15.01;-6.00
19340;HTU21D;9804;52.350;6.684;2024-01-30T13:25:54;14.62;-6.00
19340;HTU21D;9804;52.350;6.684;2024-01-30T13:28:23;14.94;-6.00
19340;HTU21D;9804;52.350;6.684;2024-01-30T13:30:48;15.04;-6.00
19340;HTU21D;9804;52.350;6.684;2024-01-30T13:33:14;15.02;-6.00
19340;HTU21D;9804;52.350;6.684;2024-01-30T13:35:39;15.03;-6.00
19340;HTU21D;9804;52.350;6.684;2024-01-30T13:38:05;15.01;-6.00
19340;HTU21D;9804;52.350;6.684;2024-01-30T13:40:30;14.88;-6.00
19340;HTU21D;9804;52.350;6.684;2024-01-30T13:42:56;14.94;-6.00
19340;HTU21D;9804;52.350;6.684;2024-01-30T13:45:21;14.83;-6.00
19340;HTU21D;9804;52.350;6.684;2024-01-30T13:47:47;14.43;-6.00
19340;HTU21D;9804;52.350;6.684;2024-01-30T13:50:12;14.50;-6.00
19340;HTU21D;9804;52.350;6.684;2024-01-30T13:52:40;13.97;-6.00
19340;HTU21D;9804;52.350;6.684;2024-01-30T13:55:06;14.00;-6.00
19340;HTU21D;9804;52.350;6.684;2024-01-30T13:57:32;14.13;-6.00
19340;HTU21D;9804;52.350;6.684;2024-01-30T14:00:01;13.76;-6.00
19340;HTU21D;9804;52.350;6.684;2024-01-30T14:02:26;13.88;-6.00
19340;HTU21D;9804;52.350;6.684;2024-01-30T14:04:52;13.83;-6.00
19340;HTU21D;9804;52.350;6.684;2024-01-30T14:07:17;13.92;-6.00
19340;HTU21D;9804;52.350;6.684;2024-01-30T14:09:44;13.67;-6.00
19340;HTU21D;9804;52.350;6.684;2024-01-30T14:12:09;13.75;-6.00
19340;HTU21D;9804;52.350;6.684;2024-01-30T14:14:35;14.05;-6.00
19340;HTU21D;9804;52.350;6.684;2024-01-30T14:17:00;13.99;-6.00
19340;HTU21D;9804;52.350;6.684;2024-01-30T14:19:26;13.98;-6.00
19340;HTU21D;9804;52.350;6.684;2024-01-30T14:21:52;13.83;-6.00
19340;HTU21D;9804;52.350;6.684;2024-01-30T14:24:17;13.78;-6.00
19340;HTU21D;9804;52.350;6.684;2024-01-30T14:26:43;13.88;-6.00
19340;HTU21D;9804;52.350;6.684;2024-01-30T14:29:09;13.89;-6.00
19340;HTU21D;9804;52.350;6.684;2024-01-30T14:31:35;13.77;-6.00
19340;HTU21D;9804;52.350;6.684;2024-01-30T14:34:00;13.70;-6.00
19340;HTU21D;9804;52.350;6.684;2024-01-30T14:36:26;13.64;-6.00
19340;HTU21D;9804;52.350;6.684;2024-01-30T14:38:54;13.46;-6.00
19340;HTU21D;9804;52.350;6.684;2024-01-30T14:41:20;13.36;-6.00
19340;HTU21D;9804;52.350;6.684;2024-01-30T14:43:45;13.24;-6.00
19340;HTU21D;9804;52.350;6.684;2024-01-30T14:46:11;13.32;-6.00
19340;HTU21D;9804;52.350;6.684;2024-01-30T14:48:36;13.15;-6.00
19340;HTU21D;9804;52.350;6.684;2024-01-30T14:51:02;12.99;-6.00
19340;HTU21D;9804;52.350;6.684;2024-01-30T14:53:28;13.18;-6.00
19340;HTU21D;9804;52.350;6.684;2024-01-30T14:55:53;13.19;-6.00
19340;HTU21D;9804;52.350;6.684;2024-01-30T14:58:19;13.20;-6.00
19340;HTU21D;9804;52.350;6.684;2024-01-30T15:00:44;13.09;-6.00
19340;HTU21D;9804;52.350;6.684;2024-01-30T15:03:10;13.10;-6.00
19340;HTU21D;9804;52.350;6.684;2024-01-30T15:05:35;13.12;-6.00
19340;HTU21D;9804;52.350;6.684;2024-01-30T15:08:01;12.89;-6.00
19340;HTU21D;9804;52.350;6.684;2024-01-30T15:10:26;12.84;-6.00
19340;HTU21D;9804;52.350;6.684;2024-01-30T15:12:52;12.88;-6.00
19340;HTU21D;9804;52.350;6.684;2024-01-30T15:15:17;12.78;-6.00
19340;HTU21D;9804;52.350;6.684;2024-01-30T15:17:42;12.88;-6.00
19340;HTU21D;9804;52.350;6.684;2024-01-30T15:20:08;12.81;-6.00
19340;HTU21D;9804;52.350;6.684;2024-01-30T15:22:34;12.79;-6.00
19340;HTU21D;9804;52.350;6.684;2024-01-30T15:24:59;12.75;-6.00
19340;HTU21D;9804;52.350;6.684;2024-01-30T15:27:25;12.69;-6.00
19340;HTU21D;9804;52.350;6.684;2024-01-30T15:29:51;12.62;-6.00